Time;durP1;ratioP1;P1;durP2;ratioP2;P2;SDS_P1;SDS_P2;PMS_P1;PMS_P2;Temp;Humidity;BMP_temperature;BMP_pressure;BME280_temperature;BME280_humidity;BME280_pressure;Samples;Min_cycle;Max_cycle;Signal;HPM_P1;HPM_P2
2023/09/27 00:00:49;;;;;;;3.40;2.55;;;10.50;99.90;;;;;;5058645;28;20453;-33
2023/09/27 00:03:15;;;;;;;3.13;2.90;;;10.60;99.90;;;;;;5042691;28;20041;-32
2023/09/27 00:05:41;;;;;;;2.55;2.35;;;10.60;99.90;;;;;;5044162;28;20024;-32
2023/09/27 00:08:06;;;;;;;3.15;2.88;;;10.60;99.90;;;;;;5045666;28;20401;-33
2023/09/27 00:10:33;;;;;;;3.30;3.00;;;10.70;99.90;;;;;;5043203;28;20052;-34
2023/09/27 00:12:59;;;;;;;3.60;3.30;;;10.70;99.90;;;;;;5036300;28;20152;-32
2023/09/27 00:15:26;;;;;;;3.97;3.38;;;10.70;99.90;;;;;;5041473;28;20025;-33
2023/09/27 00:17:52;;;;;;;3.42;3.05;;;10.70;99.90;;;;;;5042776;28;20449;-30
2023/09/27 00:20:19;;;;;;;5.60;3.25;;;10.70;99.90;;;;;;5040038;28;20033;-32
2023/09/27 00:22:45;;;;;;;3.88;3.05;;;10.70;99.90;;;;;;5042532;28;20064;-30
2023/09/27 00:25:12;;;;;;;4.15;3.60;;;10.70;99.90;;;;;;5044099;28;20513;-31
2023/09/27 00:27:38;;;;;;;5.18;3.47;;;10.70;99.90;;;;;;5041411;28;20487;-37
2023/09/27 00:30:06;;;;;;;4.15;3.25;;;10.70;99.90;;;;;;5043688;28;20143;-37
2023/09/27 00:32:32;;;;;;;;;;;10.60;99.90;;;;;;5034523;28;20028;-36
2023/09/27 00:34:57;;;;;;;3.75;3.00;;;10.50;99.90;;;;;;5030928;28;20324;-39
2023/09/27 00:37:24;;;;;;;3.55;3.25;;;10.50;99.90;;;;;;5031419;28;20060;-39
2023/09/27 00:39:49;;;;;;;5.22;3.85;;;10.50;99.90;;;;;;5031778;28;20059;-39
2023/09/27 00:42:15;;;;;;;5.70;3.92;;;10.50;99.90;;;;;;5049438;28;20495;-39
2023/09/27 00:44:40;;;;;;;3.92;3.38;;;10.40;99.90;;;;;;5033300;28;20037;-37
2023/09/27 00:47:07;;;;;;;3.55;3.10;;;10.10;99.90;;;;;;5030641;28;20025;-38
2023/09/27 00:49:33;;;;;;;2.85;2.45;;;10.00;99.90;;;;;;5031877;28;20029;-40
2023/09/27 00:52:00;;;;;;;3.10;2.80;;;10.10;99.90;;;;;;5031271;28;20124;-38
2023/09/27 00:54:27;;;;;;;2.95;2.75;;;10.20;99.90;;;;;;5035949;28;20032;-37
2023/09/27 00:56:53;;;;;;;3.45;3.15;;;10.20;99.90;;;;;;5044724;28;20029;-37
2023/09/27 00:59:19;;;;;;;2.90;2.65;;;10.20;99.90;;;;;;5042027;28;20735;-39
2023/09/27 01:01:46;;;;;;;2.95;2.75;;;10.30;99.90;;;;;;5037125;28;20034;-40
2023/09/27 01:04:14;;;;;;;3.72;3.42;;;10.30;99.90;;;;;;5039019;28;20441;-39
2023/09/27 01:06:41;;;;;;;3.83;3.40;;;10.30;99.90;;;;;;5042381;28;20032;-38
2023/09/27 01:09:07;;;;;;;3.25;2.88;;;10.30;99.90;;;;;;5039225;28;20405;-36
2023/09/27 01:11:33;;;;;;;3.30;3.00;;;10.30;99.90;;;;;;5041510;28;20124;-39
2023/09/27 01:13:59;;;;;;;5.10;3.50;;;10.20;99.90;;;;;;5037562;28;20041;-39
2023/09/27 01:16:24;;;;;;;4.28;3.55;;;10.20;99.90;;;;;;5041606;28;20045;-39
2023/09/27 01:18:50;;;;;;;5.95;3.75;;;10.30;99.90;;;;;;5037175;28;20668;-40
2023/09/27 01:21:19;;;;;;;5.55;3.97;;;10.20;99.90;;;;;;5043580;28;20029;-40
2023/09/27 01:23:48;;;;;;;4.22;3.72;;;10.10;99.90;;;;;;5042192;28;20020;-38
2023/09/27 01:26:16;;;;;;;6.05;4.38;;;10.10;99.90;;;;;;5079761;28;20029;-34
2023/09/27 01:28:46;;;;;;;4.38;3.47;;;10.20;99.90;;;;;;5078195;28;20025;-31
2023/09/27 01:31:11;;;;;;;4.40;3.60;;;10.10;99.90;;;;;;5044739;28;20037;-34
2023/09/27 01:33:37;;;;;;;5.25;3.97;;;10.10;99.90;;;;;;5045477;28;20088;-34
2023/09/27 01:36:03;;;;;;;4.53;4.13;;;10.10;99.90;;;;;;5047629;28;20111;-39
2023/09/27 01:38:30;;;;;;;4.03;3.63;;;10.00;99.90;;;;;;5044561;28;20086;-41
2023/09/27 01:40:55;;;;;;;5.30;3.08;;;10.00;99.90;;;;;;5078119;28;20032;-34
2023/09/27 01:43:21;;;;;;;4.75;3.60;;;10.00;99.90;;;;;;5045688;28;20037;-41
2023/09/27 01:45:46;;;;;;;4.70;3.80;;;10.00;99.90;;;;;;5046274;28;20032;-41
2023/09/27 01:48:12;;;;;;;5.32;4.25;;;10.00;99.90;;;;;;5047763;28;20397;-38
2023/09/27 01:50:39;;;;;;;5.57;4.30;;;10.10;99.90;;;;;;5047806;28;20049;-41
2023/09/27 01:53:05;;;;;;;22.08;5.88;;;10.10;99.90;;;;;;5046037;28;20045;-41
2023/09/27 01:55:31;;;;;;;5.03;4.30;;;10.10;99.90;;;;;;5057146;28;20032;-39
2023/09/27 01:57:57;;;;;;;7.30;4.47;;;10.10;99.90;;;;;;5079772;28;20025;-42
2023/09/27 02:00:23;;;;;;;8.05;4.60;;;10.00;99.90;;;;;;5042254;28;20036;-41
2023/09/27 02:02:50;;;;;;;7.85;5.38;;;10.00;99.90;;;;;;5042533;28;20029;-42
2023/09/27 02:05:16;;;;;;;6.85;5.18;;;10.00;99.90;;;;;;5045848;28;20470;-36
2023/09/27 02:07:42;;;;;;;8.25;5.40;;;10.00;99.90;;;;;;5043428;28;20031;-38
2023/09/27 02:10:11;;;;;;;6.90;5.20;;;10.10;99.90;;;;;;5048476;28;20043;-39
2023/09/27 02:12:38;;;;;;;6.75;5.05;;;10.10;99.90;;;;;;5046045;28;20887;-39
2023/09/27 02:15:08;;;;;;;5.18;4.68;;;10.10;99.90;;;;;;5048706;28;20029;-38
2023/09/27 02:17:38;;;;;;;5.75;4.75;;;10.00;99.90;;;;;;5037813;28;20104;-34
2023/09/27 02:20:17;;;;;;;5.00;4.45;;;10.00;99.90;;;;;;5046922;28;20043;-41
2023/09/27 02:22:46;;;;;;;5.40;4.32;;;9.90;99.90;;;;;;5044958;28;20087;-39
2023/09/27 02:25:13;;;;;;;9.45;4.68;;;10.00;99.90;;;;;;5050882;28;20108;-40
2023/09/27 02:27:39;;;;;;;5.93;4.80;;;10.00;99.90;;;;;;5045272;28;20040;-40
2023/09/27 02:30:07;;;;;;;6.00;5.05;;;10.00;99.90;;;;;;5038053;28;20119;-41
2023/09/27 02:32:33;;;;;;;10.07;5.15;;;10.00;99.90;;;;;;5033138;28;20037;-41
2023/09/27 02:34:59;;;;;;;6.50;5.15;;;10.00;99.90;;;;;;5043622;28;20414;-36
2023/09/27 02:37:25;;;;;;;8.70;5.68;;;10.00;99.90;;;;;;5074142;28;20044;-41
2023/09/27 02:39:51;;;;;;;11.32;6.00;;;9.90;99.90;;;;;;5047444;28;20365;-39
2023/09/27 02:42:17;;;;;;;7.03;5.60;;;9.90;99.90;;;;;;5059576;28;20029;-42
2023/09/27 02:44:43;;;;;;;5.45;4.80;;;9.90;99.90;;;;;;5047584;28;20174;-41
2023/09/27 02:47:08;;;;;;;35.22;7.07;;;10.00;99.90;;;;;;5049920;28;20033;-36
2023/09/27 02:49:35;;;;;;;7.07;5.68;;;10.00;99.90;;;;;;5046536;28;20039;-35
2023/09/27 02:52:00;;;;;;;8.27;5.55;;;10.00;99.90;;;;;;5042329;28;20035;-34
2023/09/27 02:54:27;;;;;;;34.33;8.07;;;10.00;99.90;;;;;;5044715;28;20033;-34
2023/09/27 02:56:53;;;;;;;45.85;8.73;;;10.00;99.90;;;;;;5046705;28;20039;-31
2023/09/27 03:02:41;;;;;;;10.77;6.00;;;9.90;99.90;;;;;;5044149;28;20086;-33
2023/09/27 03:05:07;;;;;;;12.10;5.93;;;10.00;99.90;;;;;;5047656;28;20028;-33
2023/09/27 03:07:38;;;;;;;14.55;5.90;;;10.00;99.90;;;;;;5045180;28;20124;-34
2023/09/27 03:10:08;;;;;;;8.95;6.00;;;10.00;99.90;;;;;;5043154;28;20086;-32
2023/09/27 03:12:34;;;;;;;8.65;6.60;;;10.00;99.90;;;;;;5039541;28;20083;-34
2023/09/27 03:14:59;;;;;;;21.27;6.65;;;10.00;99.90;;;;;;5045180;28;20025;-36
2023/09/27 03:17:26;;;;;;;9.95;6.47;;;10.00;99.90;;;;;;5077698;28;20543;-32
2023/09/27 03:19:53;;;;;;;42.08;10.80;;;10.00;99.90;;;;;;5062849;28;20081;-32
2023/09/27 03:22:19;;;;;;;10.02;6.30;;;10.00;99.90;;;;;;5043670;28;20544;-33
2023/09/27 03:24:45;;;;;;;27.10;8.32;;;10.10;99.90;;;;;;5039753;28;20470;-32
2023/09/27 03:27:10;;;;;;;32.70;7.95;;;10.10;99.90;;;;;;5028696;28;20036;-35
2023/09/27 03:29:46;;;;;;;16.50;7.85;;;10.00;99.90;;;;;;5046995;28;20079;-32
2023/09/27 03:32:12;;;;;;;23.10;8.95;;;10.10;99.90;;;;;;5059269;28;20151;-33
2023/09/27 03:34:38;;;;;;;15.68;6.93;;;10.00;99.90;;;;;;5042894;28;20095;-35
2023/09/27 03:37:04;;;;;;;14.80;7.20;;;10.00;99.90;;;;;;5053194;28;20563;-32
2023/09/27 03:39:35;;;;;;;9.55;6.75;;;10.00;99.90;;;;;;5053870;28;20029;-32
2023/09/27 03:42:03;;;;;;;23.08;6.88;;;10.00;99.90;;;;;;5037387;28;20395;-32
2023/09/27 03:44:29;;;;;;;8.27;7.22;;;10.10;99.90;;;;;;5044641;28;20111;-34
2023/09/27 03:46:55;;;;;;;8.55;6.50;;;10.10;99.90;;;;;;5057583;28;20112;-41
2023/09/27 03:49:21;;;;;;;8.90;6.15;;;10.10;99.90;;;;;;5042741;28;20129;-38
2023/09/27 03:51:46;;;;;;;8.82;6.75;;;10.10;99.90;;;;;;5045813;28;20478;-39
2023/09/27 03:54:12;;;;;;;11.07;7.15;;;10.10;99.90;;;;;;5041365;28;20115;-40
2023/09/27 03:56:37;;;;;;;22.58;6.75;;;10.10;99.90;;;;;;5043717;28;20039;-35
2023/09/27 03:59:03;;;;;;;28.38;10.15;;;10.10;99.90;;;;;;5038830;28;20538;-39
2023/09/27 04:01:30;;;;;;;8.77;6.93;;;10.10;99.90;;;;;;5043740;28;20440;-38
2023/09/27 04:03:56;;;;;;;6.18;5.30;;;10.10;99.90;;;;;;5036309;28;20038;-39
2023/09/27 04:06:22;;;;;;;7.85;6.03;;;10.00;99.90;;;;;;5045706;28;20033;-39
2023/09/27 04:08:47;;;;;;;7.97;5.93;;;10.00;99.90;;;;;;5043998;28;20022;-40
2023/09/27 04:11:13;;;;;;;7.75;6.03;;;10.10;99.90;;;;;;5046685;28;20036;-36
2023/09/27 04:13:39;;;;;;;8.98;7.03;;;10.10;99.90;;;;;;5039374;28;20467;-36
2023/09/27 04:16:04;;;;;;;26.63;6.93;;;10.10;99.90;;;;;;5050959;28;20082;-39
2023/09/27 04:18:30;;;;;;;7.57;6.07;;;10.10;99.90;;;;;;5041861;28;20053;-40
2023/09/27 04:21:07;;;;;;;18.35;7.15;;;10.10;99.90;;;;;;5044543;28;20025;-38
2023/09/27 04:23:33;;;;;;;12.40;5.97;;;10.10;99.90;;;;;;5041865;28;20036;-37
2023/09/27 04:26:00;;;;;;;8.63;6.22;;;10.20;99.90;;;;;;5045949;28;20078;-40
2023/09/27 04:28:25;;;;;;;9.40;6.32;;;10.20;99.90;;;;;;5046904;28;20037;-39
2023/09/27 04:30:51;;;;;;;8.98;6.55;;;10.20;99.90;;;;;;5043760;28;20040;-38
2023/09/27 04:33:18;;;;;;;8.18;5.85;;;10.20;99.90;;;;;;5038112;28;20116;-39
2023/09/27 04:35:44;;;;;;;7.88;6.35;;;10.20;99.90;;;;;;5047784;28;20116;-39
2023/09/27 04:38:10;;;;;;;28.02;8.43;;;10.20;99.90;;;;;;5039836;28;20542;-35
2023/09/27 04:40:37;;;;;;;7.30;5.82;;;10.10;99.90;;;;;;5043516;28;20591;-37
2023/09/27 04:43:04;;;;;;;6.45;5.43;;;10.10;99.90;;;;;;5037487;28;20044;-39
2023/09/27 04:45:29;;;;;;;7.20;5.75;;;10.00;99.90;;;;;;5043586;28;20212;-40
2023/09/27 04:47:55;;;;;;;6.90;5.72;;;10.00;99.90;;;;;;5040720;28;20273;-40
2023/09/27 04:50:20;;;;;;;15.40;6.45;;;10.10;99.90;;;;;;5040295;28;20098;-39
2023/09/27 04:52:46;;;;;;;7.38;5.88;;;10.00;99.90;;;;;;5043812;28;20036;-40
2023/09/27 04:55:12;;;;;;;8.48;6.32;;;10.10;99.90;;;;;;5045255;28;20032;-40
2023/09/27 04:57:38;;;;;;;16.75;5.90;;;10.10;99.90;;;;;;5042667;28;20044;-35
2023/09/27 05:00:06;;;;;;;12.10;6.22;;;10.00;99.90;;;;;;5048458;28;20475;-39
2023/09/27 05:02:32;;;;;;;7.05;5.70;;;10.00;99.90;;;;;;5047149;28;20680;-41
2023/09/27 05:04:57;;;;;;;9.02;5.82;;;10.00;99.90;;;;;;5051141;28;20029;-39
2023/09/27 05:07:23;;;;;;;14.30;6.57;;;10.00;99.90;;;;;;5047768;28;20611;-40
2023/09/27 05:09:49;;;;;;;10.18;7.88;;;10.10;99.90;;;;;;5046833;28;20508;-40
2023/09/27 05:12:15;;;;;;;10.13;6.25;;;10.10;99.90;;;;;;5043519;28;20112;-40
2023/09/27 05:14:41;;;;;;;9.82;6.65;;;10.10;99.90;;;;;;5048211;28;20119;-37
2023/09/27 05:17:07;;;;;;;9.55;6.13;;;10.10;99.90;;;;;;5046043;28;20130;-32
2023/09/27 05:19:32;;;;;;;8.65;5.82;;;10.10;99.90;;;;;;5043724;28;20507;-33
2023/09/27 05:21:59;;;;;;;7.88;5.85;;;10.10;99.90;;;;;;5042964;28;20040;-34
2023/09/27 05:24:25;;;;;;;11.40;6.53;;;10.00;99.90;;;;;;5046722;28;20036;-32
2023/09/27 05:26:50;;;;;;;10.75;6.60;;;10.10;99.90;;;;;;5043429;28;20029;-34
2023/09/27 05:29:16;;;;;;;9.98;6.25;;;10.00;99.90;;;;;;5046924;28;20028;-33
2023/09/27 05:31:44;;;;;;;10.20;5.95;;;10.10;99.90;;;;;;5044807;28;20033;-35
2023/09/27 05:34:10;;;;;;;9.25;6.43;;;10.00;99.90;;;;;;5044595;28;20363;-34
2023/09/27 05:36:36;;;;;;;13.57;6.55;;;9.90;99.90;;;;;;5042249;28;20032;-32
2023/09/27 05:39:04;;;;;;;7.07;5.68;;;9.90;99.90;;;;;;5045247;28;20125;-30
2023/09/27 05:41:30;;;;;;;7.38;5.68;;;9.80;99.90;;;;;;5052566;28;20498;-32
2023/09/27 05:43:56;;;;;;;8.13;6.40;;;9.90;99.90;;;;;;5044862;28;20052;-33
2023/09/27 05:46:23;;;;;;;8.25;6.30;;;9.90;99.90;;;;;;5048441;28;20029;-36
2023/09/27 05:48:49;;;;;;;7.10;5.93;;;9.90;99.90;;;;;;5046038;28;20025;-37
2023/09/27 05:51:15;;;;;;;6.95;5.68;;;9.90;99.90;;;;;;5046778;28;20021;-34
2023/09/27 05:53:41;;;;;;;8.10;5.72;;;9.90;99.90;;;;;;5045757;28;20021;-33
2023/09/27 05:56:08;;;;;;;8.68;5.88;;;9.90;99.90;;;;;;5047039;28;20029;-36
2023/09/27 05:58:35;;;;;;;6.78;5.22;;;9.90;99.90;;;;;;5038082;28;20107;-34
2023/09/27 06:01:07;;;;;;;11.60;6.10;;;10.00;99.90;;;;;;5036732;28;20439;-35
2023/09/27 06:03:58;;;;;;;9.00;6.15;;;10.00;99.90;;;;;;5056794;28;20028;-32
2023/09/27 06:06:25;;;;;;;6.75;5.65;;;10.00;99.90;;;;;;5044290;28;20433;-37
2023/09/27 06:08:51;;;;;;;5.82;5.00;;;10.00;99.90;;;;;;5039551;28;20036;-39
2023/09/27 06:11:17;;;;;;;5.68;5.10;;;10.10;99.90;;;;;;5063071;28;20033;-37
2023/09/27 06:13:43;;;;;;;6.28;5.22;;;10.00;99.90;;;;;;5043800;28;20143;-40
2023/09/27 06:16:13;;;;;;;6.32;5.50;;;10.00;99.90;;;;;;5050476;28;20705;-38
2023/09/27 06:18:39;;;;;;;7.38;5.60;;;10.00;99.90;;;;;;5063218;28;20390;-37
2023/09/27 06:21:05;;;;;;;7.28;5.88;;;10.10;99.90;;;;;;5047754;28;20032;-39
2023/09/27 06:23:30;;;;;;;9.90;6.25;;;10.10;99.90;;;;;;5045600;28;20065;-41
2023/09/27 06:25:56;;;;;;;7.53;6.15;;;10.10;99.90;;;;;;5046121;28;20092;-40
2023/09/27 06:28:22;;;;;;;7.53;6.43;;;10.20;99.90;;;;;;5044297;28;20029;-40
2023/09/27 06:30:48;;;;;;;7.72;6.30;;;10.20;99.90;;;;;;5046107;28;20052;-40
2023/09/27 06:33:14;;;;;;;8.13;6.88;;;10.30;99.90;;;;;;5049788;28;20467;-40
2023/09/27 06:35:40;;;;;;;11.93;7.18;;;10.30;99.90;;;;;;5046264;28;20111;-36
2023/09/27 06:38:05;;;;;;;10.15;6.80;;;10.40;99.90;;;;;;5043704;28;20026;-38
2023/09/27 06:40:32;;;;;;;9.63;7.30;;;10.40;99.90;;;;;;5047047;28;20518;-38
2023/09/27 06:42:57;;;;;;;9.93;7.10;;;10.40;99.90;;;;;;5042233;28;20367;-38
2023/09/27 06:45:23;;;;;;;9.15;7.13;;;10.50;99.90;;;;;;5048593;28;20052;-40
2023/09/27 06:47:49;;;;;;;11.65;7.90;;;10.50;99.90;;;;;;5047734;28;20025;-40
2023/09/27 06:50:17;;;;;;;10.68;7.13;;;10.50;99.90;;;;;;5061941;28;20536;-40
2023/09/27 06:52:45;;;;;;;15.98;7.38;;;10.60;99.90;;;;;;5047982;28;20497;-39
2023/09/27 06:55:11;;;;;;;14.65;8.23;;;10.70;99.90;;;;;;5045857;28;20118;-36
2023/09/27 06:57:40;;;;;;;12.10;7.82;;;10.70;99.90;;;;;;5044377;28;20819;-39
2023/09/27 07:00:18;;;;;;;10.90;7.85;;;10.70;99.90;;;;;;5039137;28;20032;-37
2023/09/27 07:02:47;;;;;;;10.77;7.63;;;10.80;99.90;;;;;;5029354;28;20033;-36
2023/09/27 07:05:14;;;;;;;10.10;7.35;;;10.90;99.90;;;;;;5026592;28;20087;-37
2023/09/27 07:07:40;;;;;;;10.30;7.65;;;11.00;99.90;;;;;;5042085;28;20087;-39
2023/09/27 07:10:07;;;;;;;10.50;8.02;;;11.00;99.90;;;;;;5043973;28;20479;-39
2023/09/27 07:12:34;;;;;;;12.10;7.75;;;11.10;99.90;;;;;;5043731;28;20029;-38
2023/09/27 07:15:00;;;;;;;13.20;8.32;;;11.10;99.90;;;;;;5047047;28;20056;-40
2023/09/27 07:17:26;;;;;;;13.40;7.93;;;11.20;99.90;;;;;;5042757;28;20049;-41
2023/09/27 07:19:53;;;;;;;11.77;7.88;;;11.30;99.90;;;;;;5039051;28;20029;-41
2023/09/27 07:22:19;;;;;;;14.73;8.60;;;11.30;99.90;;;;;;5039497;28;20481;-41
2023/09/27 07:24:45;;;;;;;11.82;7.75;;;11.40;99.90;;;;;;5045087;28;20044;-41
2023/09/27 07:27:13;;;;;;;11.43;8.30;;;11.50;99.90;;;;;;5042215;28;20474;-36
2023/09/27 07:29:39;;;;;;;14.73;8.18;;;11.60;99.90;;;;;;5044194;28;20024;-42
2023/09/27 07:32:04;;;;;;;10.50;8.23;;;11.60;99.90;;;;;;5044640;28;20045;-41
2023/09/27 07:34:30;;;;;;;11.32;7.90;;;11.70;99.90;;;;;;5046972;28;20043;-37
2023/09/27 07:36:56;;;;;;;9.68;7.53;;;11.80;99.90;;;;;;5043510;28;20075;-38
2023/09/27 07:39:22;;;;;;;13.23;7.78;;;11.90;99.90;;;;;;5043159;28;20511;-36
2023/09/27 07:41:49;;;;;;;10.07;7.80;;;12.00;99.90;;;;;;5041786;28;20107;-41
2023/09/27 07:44:17;;;;;;;12.73;7.63;;;12.10;99.90;;;;;;5048616;28;20612;-41
2023/09/27 07:46:44;;;;;;;10.63;7.55;;;12.20;99.90;;;;;;5044911;28;20104;-39
2023/09/27 07:49:10;;;;;;;10.02;8.55;;;12.40;99.90;;;;;;5044010;28;20033;-36
2023/09/27 07:51:35;;;;;;;10.85;7.80;;;12.50;99.90;;;;;;5046802;28;20041;-33
2023/09/27 07:54:04;;;;;;;10.07;7.70;;;12.70;99.90;;;;;;5044695;28;20035;-41
2023/09/27 07:56:36;;;;;;;12.07;8.30;;;12.80;99.90;;;;;;5048103;28;20094;-40
2023/09/27 07:59:03;;;;;;;12.38;8.32;;;13.00;99.90;;;;;;5047691;28;20033;-42
2023/09/27 08:01:29;;;;;;;9.20;7.65;;;13.20;99.90;;;;;;5044909;28;20036;-38
2023/09/27 08:04:05;;;;;;;10.90;8.00;;;13.40;99.90;;;;;;5059965;28;20045;-40
2023/09/27 08:06:33;;;;;;;13.75;9.35;;;13.60;99.90;;;;;;5044348;28;20064;-37
2023/09/27 08:08:59;;;;;;;12.23;8.68;;;13.90;99.90;;;;;;5043430;28;20036;-42
2023/09/27 08:11:25;;;;;;;9.57;7.82;;;14.30;99.90;;;;;;5046007;28;20065;-42
2023/09/27 08:13:50;;;;;;;10.68;8.43;;;14.20;99.90;;;;;;5045252;28;20068;-38
2023/09/27 08:16:16;;;;;;;8.90;7.15;;;14.30;99.90;;;;;;5048164;28;20588;-34
2023/09/27 08:18:42;;;;;;;11.13;7.95;;;14.20;99.90;;;;;;5055699;28;20025;-40
2023/09/27 08:21:09;;;;;;;9.60;7.15;;;14.10;99.90;;;;;;5064170;28;20501;-36
2023/09/27 08:23:34;;;;;;;10.52;7.55;;;14.10;99.90;;;;;;5041783;28;20387;-39
2023/09/27 08:26:00;;;;;;;9.10;7.32;;;14.20;99.90;;;;;;5045066;28;20029;-32
2023/09/27 08:28:29;;;;;;;11.05;8.10;;;14.30;99.90;;;;;;5043085;28;20029;-34
2023/09/27 08:30:59;;;;;;;9.00;8.00;;;14.60;99.90;;;;;;5042134;28;20109;-32
2023/09/27 08:33:26;;;;;;;9.38;7.68;;;14.90;99.90;;;;;;5038455;28;20067;-33
2023/09/27 08:35:52;;;;;;;11.40;8.18;;;15.00;99.90;;;;;;5043947;28;20078;-33
2023/09/27 08:38:18;;;;;;;10.40;7.57;;;15.30;99.90;;;;;;5041958;28;20036;-32
2023/09/27 08:40:47;;;;;;;11.82;8.60;;;15.40;99.90;;;;;;5042527;28;20029;-33
2023/09/27 08:43:14;;;;;;;8.55;7.65;;;15.60;99.90;;;;;;5040167;28;20514;-36
2023/09/27 08:45:41;;;;;;;9.73;6.75;;;15.80;99.90;;;;;;5024265;28;20049;-34
2023/09/27 08:48:12;;;;;;;8.27;7.35;;;16.00;99.90;;;;;;5030460;28;20037;-30
2023/09/27 08:50:38;;;;;;;9.80;7.40;;;16.20;99.90;;;;;;5053565;28;20025;-31
2023/09/27 08:53:04;;;;;;;7.95;6.88;;;16.50;99.90;;;;;;5044937;28;20029;-31
2023/09/27 08:55:30;;;;;;;9.05;6.60;;;16.70;99.90;;;;;;5048160;28;20036;-30
2023/09/27 08:57:56;;;;;;;8.52;7.40;;;17.00;99.90;;;;;;5045747;28;20036;-30
2023/09/27 09:00:26;;;;;;;8.07;6.72;;;17.10;99.90;;;;;;5047281;28;20078;-31
2023/09/27 09:02:57;;;;;;;7.63;6.10;;;17.30;99.90;;;;;;5040079;28;20022;-31
2023/09/27 09:05:24;;;;;;;8.13;7.03;;;17.40;99.90;;;;;;5044511;28;20025;-31
2023/09/27 09:07:50;;;;;;;10.17;6.80;;;17.60;99.90;;;;;;5043803;28;20048;-30
2023/09/27 09:10:16;;;;;;;7.47;5.93;;;17.70;99.90;;;;;;5046696;28;20401;-32
2023/09/27 09:12:43;;;;;;;7.90;6.05;;;17.70;99.90;;;;;;5041442;28;20470;-35
2023/09/27 09:15:15;;;;;;;11.65;5.40;;;17.90;99.90;;;;;;5046366;28;20024;-36
2023/09/27 09:17:48;;;;;;;7.32;5.82;;;18.10;99.90;;;;;;5043330;28;20029;-30
2023/09/27 09:20:26;;;;;;;8.13;5.68;;;18.30;99.90;;;;;;5056874;28;20067;-30
2023/09/27 09:22:54;;;;;;;6.60;5.57;;;18.40;99.90;;;;;;5042755;28;20034;-30
2023/09/27 09:25:29;;;;;;;7.55;5.50;;;18.40;99.90;;;;;;5046021;28;20025;-30
2023/09/27 09:28:03;;;;;;;6.05;4.93;;;18.30;99.90;;;;;;5043987;28;20040;-30
2023/09/27 09:30:39;;;;;;;6.97;5.03;;;18.20;99.90;;;;;;5059170;28;20374;-29
2023/09/27 09:33:24;;;;;;;7.43;6.00;;;18.20;99.90;;;;;;5058123;28;20553;-30
2023/09/27 09:35:51;;;;;;;6.78;4.82;;;18.30;99.90;;;;;;5044961;28;20036;-29
2023/09/27 09:38:29;;;;;;;7.60;5.85;;;18.50;99.90;;;;;;5042876;28;20083;-30
2023/09/27 09:41:00;;;;;;;6.30;4.53;;;18.60;99.90;;;;;;5046397;28;20025;-31
2023/09/27 09:43:36;;;;;;;6.55;5.50;;;18.90;99.90;;;;;;5041675;28;20036;-31
2023/09/27 09:46:06;;;;;;;8.10;5.30;;;19.20;99.90;;;;;;5047141;28;20093;-30
2023/09/27 09:48:35;;;;;;;5.60;5.00;;;19.00;99.90;;;;;;5045431;28;20052;-30
2023/09/27 09:51:06;;;;;;;7.13;5.22;;;19.30;99.90;;;;;;5048844;28;20355;-30
2023/09/27 09:53:40;;;;;;;6.70;5.50;;;19.70;99.90;;;;;;5046556;28;20029;-30
2023/09/27 09:56:10;;;;;;;6.18;5.13;;;19.70;99.90;;;;;;5050749;28;20037;-30
2023/09/27 09:58:45;;;;;;;6.35;5.28;;;19.90;99.90;;;;;;5047334;28;20533;-30
2023/09/27 10:01:18;;;;;;;7.65;5.68;;;20.00;99.90;;;;;;5043117;28;20430;-33
2023/09/27 10:03:47;;;;;;;6.53;4.93;;;20.00;99.90;;;;;;5050858;28;20029;-30
2023/09/27 10:06:17;;;;;;;7.78;5.82;;;20.30;99.90;;;;;;5047570;28;20068;-31
2023/09/27 10:08:45;;;;;;;5.97;5.40;;;20.40;99.90;;;;;;5044097;28;20113;-30
2023/09/27 10:11:11;;;;;;;7.53;6.05;;;20.60;99.90;;;;;;5050936;28;20035;-32
2023/09/27 10:13:40;;;;;;;7.18;6.15;;;20.40;99.90;;;;;;5048110;28;20021;-30
2023/09/27 10:16:08;;;;;;;7.68;6.07;;;20.20;99.90;;;;;;5042732;28;20036;-31
2023/09/27 10:18:40;;;;;;;6.82;5.68;;;20.20;99.90;;;;;;5047026;28;20025;-33
2023/09/27 10:21:07;;;;;;;6.15;5.10;;;20.40;99.90;;;;;;5050618;28;20033;-31
2023/09/27 10:23:53;;;;;;;6.05;4.97;;;20.50;99.90;;;;;;5047292;28;20036;-30
2023/09/27 10:26:28;;;;;;;8.40;6.28;;;20.80;99.90;;;;;;5046901;28;20163;-30
2023/09/27 10:29:03;;;;;;;5.80;5.00;;;21.10;99.90;;;;;;5048714;28;20536;-32
2023/09/27 10:31:37;;;;;;;8.77;7.38;;;21.30;99.90;;;;;;5045825;28;20090;-33
2023/09/27 10:34:23;;;;;;;8.13;6.55;;;21.20;99.90;;;;;;5049285;28;20033;-34
2023/09/27 10:36:49;;;;;;;8.40;6.50;;;20.80;99.90;;;;;;5046019;28;20036;-30
2023/09/27 10:39:15;;;;;;;9.18;6.20;;;20.60;99.90;;;;;;5049308;28;20049;-29
2023/09/27 10:41:46;;;;;;;10.05;5.35;;;20.60;99.90;;;;;;5048865;28;20029;-33
2023/09/27 10:44:13;;;;;;;6.60;5.57;;;20.50;99.90;;;;;;5051254;28;20532;-30
2023/09/27 10:46:51;;;;;;;6.00;5.40;;;20.50;99.90;;;;;;5043082;28;20025;-39
2023/09/27 10:49:21;;;;;;;5.60;4.95;;;20.70;99.90;;;;;;5043784;28;20433;-40
2023/09/27 10:51:46;;;;;;;7.93;4.85;;;20.80;99.90;;;;;;5043892;28;20029;-39
2023/09/27 10:54:12;;;;;;;6.38;5.38;;;21.00;99.90;;;;;;5042608;28;20087;-39
2023/09/27 10:56:43;;;;;;;9.02;6.47;;;21.30;99.90;;;;;;5046006;28;20025;-38
2023/09/27 10:59:08;;;;;;;8.13;5.13;;;21.20;99.90;;;;;;5046412;28;20036;-40
2023/09/27 11:01:35;;;;;;;9.70;5.88;;;21.20;99.90;;;;;;5039822;28;20041;-38
2023/09/27 11:04:03;;;;;;;6.25;5.65;;;21.10;99.90;;;;;;5041433;28;20037;-39
2023/09/27 11:06:30;;;;;;;;;;;21.00;99.90;;;;;;5041436;28;20680;-38
2023/09/27 11:09:06;;;;;;;6.88;5.78;;;21.00;99.90;;;;;;5044659;28;19920;-36
2023/09/27 11:11:35;;;;;;;5.38;4.15;;;21.10;99.90;;;;;;5038332;28;20937;-41
2023/09/27 11:14:01;;;;;;;4.30;3.88;;;21.00;99.90;;;;;;5037449;28;20037;-39
2023/09/27 11:16:27;;;;;;;6.03;4.53;;;21.10;99.90;;;;;;5042232;28;20359;-39
2023/09/27 11:18:57;;;;;;;5.47;4.70;;;21.30;99.90;;;;;;5046432;28;20029;-41
2023/09/27 11:21:24;;;;;;;5.30;4.80;;;21.10;99.90;;;;;;5046322;28;20111;-35
2023/09/27 11:23:56;;;;;;;5.63;4.05;;;21.00;99.90;;;;;;5044546;28;20051;-41
2023/09/27 11:26:24;;;;;;;4.60;3.88;;;21.20;99.90;;;;;;5047852;28;20443;-39
2023/09/27 11:28:57;;;;;;;5.05;3.60;;;21.20;99.90;;;;;;5041570;28;20030;-42
2023/09/27 11:31:24;;;;;;;5.03;4.00;;;21.30;99.90;;;;;;5046758;28;20065;-39
2023/09/27 11:33:50;;;;;;;4.35;3.50;;;21.20;99.90;;;;;;5057605;28;20043;-36
2023/09/27 11:36:16;;;;;;;4.28;3.63;;;21.20;99.90;;;;;;5049538;28;20051;-36
2023/09/27 11:38:51;;;;;;;5.35;3.67;;;21.00;99.90;;;;;;5042506;28;20036;-34
2023/09/27 11:41:19;;;;;;;4.43;3.97;;;21.10;99.90;;;;;;5042772;28;20033;-33
2023/09/27 11:43:45;;;;;;;7.55;4.32;;;21.20;99.90;;;;;;5040858;28;20084;-40
2023/09/27 11:46:11;;;;;;;6.07;4.10;;;21.20;99.90;;;;;;5045868;28;20071;-33
2023/09/27 11:48:37;;;;;;;3.63;3.33;;;21.30;99.90;;;;;;5044082;28;20053;-40
2023/09/27 11:51:04;;;;;;;5.47;3.78;;;21.40;99.90;;;;;;5047902;28;20075;-40
2023/09/27 11:53:30;;;;;;;6.75;4.57;;;21.50;99.90;;;;;;5040805;28;20037;-38
2023/09/27 11:55:56;;;;;;;5.25;4.53;;;21.70;99.90;;;;;;5045174;28;20648;-33
2023/09/27 11:58:25;;;;;;;7.70;4.72;;;21.60;99.90;;;;;;5042543;28;20043;-30
2023/09/27 12:00:51;;;;;;;6.10;4.47;;;21.50;99.90;;;;;;5048207;28;20045;-29
2023/09/27 12:03:17;;;;;;;4.45;3.90;;;21.50;99.90;;;;;;5046863;28;20406;-30
2023/09/27 12:05:42;;;;;;;5.35;4.00;;;21.50;99.90;;;;;;5050296;28;20033;-30
2023/09/27 12:08:08;;;;;;;4.30;3.90;;;21.70;99.90;;;;;;5046161;28;20020;-30
2023/09/27 12:10:34;;;;;;;4.28;3.80;;;21.70;99.90;;;;;;5047822;28;20021;-33
2023/09/27 12:13:00;;;;;;;5.13;4.03;;;21.50;99.90;;;;;;5047535;28;20017;-30
2023/09/27 12:15:25;;;;;;;4.32;3.70;;;21.50;99.90;;;;;;5046056;28;20041;-31
2023/09/27 12:17:52;;;;;;;3.95;3.45;;;21.50;99.90;;;;;;5040366;28;20040;-32
2023/09/27 12:20:18;;;;;;;5.75;3.28;;;21.50;99.90;;;;;;5076925;28;20033;-33
2023/09/27 12:22:43;;;;;;;3.72;3.38;;;21.40;99.90;;;;;;5059213;28;20028;-32
2023/09/27 12:25:11;;;;;;;3.58;3.28;;;21.40;99.90;;;;;;5047117;28;20553;-35
2023/09/27 12:27:37;;;;;;;4.95;3.20;;;21.50;99.90;;;;;;5044413;28;20029;-32
2023/09/27 12:30:05;;;;;;;3.92;2.78;;;21.50;99.90;;;;;;5046395;28;20067;-31
2023/09/27 12:32:30;;;;;;;;;;;21.50;99.90;;;;;;5042156;28;20585;-32
2023/09/27 12:34:56;;;;;;;3.35;3.05;;;21.50;99.90;;;;;;5040762;28;20023;-32
2023/09/27 12:37:21;;;;;;;4.50;3.17;;;21.50;99.90;;;;;;5044580;28;20037;-33
2023/09/27 12:39:47;;;;;;;3.45;3.05;;;21.50;99.90;;;;;;5042835;28;20040;-32
2023/09/27 12:42:13;;;;;;;4.80;3.10;;;21.70;99.90;;;;;;5045385;28;20112;-32
2023/09/27 12:44:39;;;;;;;3.38;3.08;;;21.70;99.90;;;;;;5044013;28;20045;-33
2023/09/27 12:47:05;;;;;;;3.45;3.08;;;21.70;99.90;;;;;;5041867;28;20059;-31
2023/09/27 12:49:31;;;;;;;3.58;3.22;;;21.70;99.90;;;;;;5061477;28;20145;-31